Time;durP1;ratioP1;P1;durP2;ratioP2;P2;SDS_P1;SDS_P2;PMS_P1;PMS_P2;Temp;Humidity;BMP_temperature;BMP_pressure;BME280_temperature;BME280_humidity;BME280_pressure;Samples;Min_cycle;Max_cycle;Signal;HPM_P1;HPM_P2
2021/10/28 00:12:30;;;;;;;58.80;29.70;;;;;;;-1.30;83.28;98542.59;116920;1171;69054;-71
2021/10/28 00:15:03;;;;;;;56.20;32.30;;;;;;;-1.31;83.24;98543.15;116945;1177;59545;-73
2021/10/28 00:17:58;;;;;;;45.70;26.40;;;;;;;-1.34;83.19;98546.34;117000;1177;59545;-70
2021/10/28 00:20:31;;;;;;;64.90;33.20;;;;;;;-1.35;83.30;98545.98;117076;1177;70563;-70
2021/10/28 00:23:03;;;;;;;56.00;32.20;;;;;;;-1.39;82.73;98546.15;117143;1177;67556;-70
2021/10/28 00:25:33;;;;;;;56.80;31.70;;;;;;;-1.42;82.52;98540.23;117063;1177;68762;-70
2021/10/28 00:28:04;;;;;;;69.10;36.70;;;;;;;-1.44;83.69;98538.61;116937;1177;59590;-73
2021/10/28 00:30:34;;;;;;;64.60;35.50;;;;;;;-1.52;82.29;98535.07;116949;1177;59497;-74
2021/10/28 00:33:04;;;;;;;62.30;37.60;;;;;;;-1.61;81.77;98536.36;116948;1179;70170;-70
2021/10/28 00:35:35;;;;;;;59.10;30.40;;;;;;;-1.68;81.95;98531.77;116973;1177;68374;-70
2021/10/28 00:38:04;;;;;;;54.80;29.70;;;;;;;-1.74;82.18;98529.14;117037;1177;69223;-71
2021/10/28 00:40:34;;;;;;;57.50;28.70;;;;;;;-1.79;83.26;98528.48;117069;1177;59522;-69
2021/10/28 00:43:04;;;;;;;54.00;28.30;;;;;;;-1.83;84.04;98526.41;116977;1177;59537;-69
2021/10/28 00:45:34;;;;;;;53.20;31.70;;;;;;;-1.83;84.29;98521.98;116942;1178;70764;-71
2021/10/28 00:48:05;;;;;;;60.90;32.10;;;;;;;-1.83;83.82;98521.89;117136;1177;68380;-69
2021/10/28 00:50:35;;;;;;;64.30;36.00;;;;;;;-1.86;82.70;98520.70;117006;1177;69280;-73
2021/10/28 00:53:05;;;;;;;61.70;36.70;;;;;;;-1.88;81.81;98518.45;117011;1177;59548;-71
2021/10/28 00:55:36;;;;;;;67.80;39.00;;;;;;;-1.90;81.47;98517.93;117064;1177;59588;-69
2021/10/28 00:58:07;;;;;;;79.50;41.40;;;;;;;-1.91;81.61;98519.38;117051;1177;70317;-76
2021/10/28 01:00:38;;;;;;;71.60;40.40;;;;;;;-1.88;82.37;98520.66;117098;1176;67643;-72
2021/10/28 01:03:09;;;;;;;69.40;39.90;;;;;;;-1.87;82.71;98518.58;117043;1178;69232;-70
2021/10/28 01:05:41;;;;;;;70.70;39.50;;;;;;;-1.87;83.35;98515.41;117013;1177;59540;-70
2021/10/28 01:08:16;;;;;;;60.60;33.60;;;;;;;-1.87;84.49;98517.48;117021;1177;59548;-72
2021/10/28 01:10:49;;;;;;;49.40;30.10;;;;;;;-1.89;83.82;98513.23;116954;1178;71149;-79
2021/10/28 01:13:22;;;;;;;58.50;31.10;;;;;;;-1.88;85.61;98514.27;116925;1178;68369;-71
2021/10/28 01:15:55;;;;;;;56.00;30.60;;;;;;;-1.89;85.96;98511.70;116923;1179;68056;-72
2021/10/28 01:18:26;;;;;;;54.60;30.50;;;;;;;-1.88;86.04;98512.52;117056;1177;59498;-72
2021/10/28 01:20:56;;;;;;;;;;;;;;;-1.90;85.57;98507.70;117064;1177;59530;-70
2021/10/28 01:23:27;;;;;;;55.70;28.20;;;;;;;-1.93;84.61;98506.20;116964;1178;70568;-69
2021/10/28 01:26:05;;;;;;;62.90;34.40;;;;;;;-1.94;83.90;98509.64;117038;1177;68297;-71
2021/10/28 01:28:38;;;;;;;62.70;34.40;;;;;;;-1.94;84.84;98506.31;116887;1177;69307;-69
2021/10/28 01:31:10;;;;;;;60.70;34.60;;;;;;;-1.97;84.96;98509.69;116878;1178;59548;-73
2021/10/28 01:33:40;;;;;;;52.10;30.10;;;;;;;-2.02;83.94;98516.38;116994;1176;59577;-71
2021/10/28 01:36:11;;;;;;;53.80;31.20;;;;;;;-2.08;83.75;98510.13;116884;1170;71166;-73
2021/10/28 01:38:42;;;;;;;60.20;30.50;;;;;;;-2.12;84.12;98512.45;117010;1177;68358;-73
2021/10/28 01:41:13;;;;;;;48.10;26.70;;;;;;;-2.16;84.55;98518.44;117026;1177;69284;-73
2021/10/28 01:43:43;;;;;;;53.60;34.40;;;;;;;-2.16;85.52;98520.92;116972;1177;59529;-72
2021/10/28 01:46:13;;;;;;;54.60;31.00;;;;;;;-2.19;84.24;98525.31;117120;1177;59519;-74
2021/10/28 01:48:44;;;;;;;60.60;33.40;;;;;;;-2.19;84.88;98523.69;116866;1178;71485;-68
2021/10/28 01:51:20;;;;;;;;;;;;;;;-2.20;84.27;98523.25;116986;1177;68304;-68
2021/10/28 01:53:51;;;;;;;56.80;33.10;;;;;;;-2.19;85.83;98521.65;116972;1177;68524;-68
2021/10/28 01:56:22;;;;;;;60.20;36.10;;;;;;;-2.20;85.45;98527.34;117044;1177;59533;-69
2021/10/28 01:58:52;;;;;;;70.30;38.00;;;;;;;-2.24;84.93;98524.43;117280;1177;59536;-71
2021/10/28 02:01:21;;;;;;;72.50;38.00;;;;;;;-2.28;83.85;98522.27;117269;1176;70507;-70
2021/10/28 02:03:52;;;;;;;49.50;28.30;;;;;;;-2.34;83.20;98523.04;117019;1177;68185;-72
2021/10/28 02:06:22;;;;;;;54.40;29.30;;;;;;;-2.40;83.82;98520.55;117178;1177;69021;-70
2021/10/28 02:08:52;;;;;;;56.50;32.00;;;;;;;-2.43;84.24;98527.31;117257;1177;59542;-76
2021/10/28 02:11:22;;;;;;;52.30;27.20;;;;;;;-2.44;84.93;98524.89;116981;1177;59583;-75
2021/10/28 02:13:51;;;;;;;60.30;31.10;;;;;;;-2.43;85.61;98528.64;116991;1177;70746;-73
2021/10/28 02:16:21;;;;;;;50.70;27.10;;;;;;;-2.41;85.87;98533.67;116999;1176;67458;-75
2021/10/28 02:18:51;;;;;;;55.30;31.90;;;;;;;-2.39;86.19;98537.99;117001;1177;68255;-82
2021/10/28 02:21:20;;;;;;;60.30;34.40;;;;;;;-2.40;85.40;98531.08;117143;1177;59527;-69
2021/10/28 02:23:51;;;;;;;;;;;;;;;-2.39;84.92;98530.23;117038;1178;59505;-75
2021/10/28 02:26:21;;;;;;;56.00;30.80;;;;;;;-2.43;84.48;98531.04;117085;1177;70584;-70
2021/10/28 02:28:55;;;;;;;57.10;31.00;;;;;;;-2.45;85.58;98532.04;117258;1177;68485;-69
2021/10/28 02:31:25;;;;;;;59.10;30.80;;;;;;;-2.49;85.33;98539.25;116936;1177;69156;-71
2021/10/28 02:33:55;;;;;;;;;;;;;;;-2.55;84.43;98536.93;117271;1177;59564;-72
2021/10/28 02:36:24;;;;;;;64.80;31.30;;;;;;;-2.58;84.41;98536.95;117228;1177;59567;-73
2021/10/28 02:38:54;;;;;;;55.30;28.00;;;;;;;-2.61;84.41;98536.60;116985;1177;70637;-74
2021/10/28 02:41:24;;;;;;;;;;;;;;;-2.62;85.31;98539.50;117025;1177;67734;-70
2021/10/28 02:43:56;;;;;;;52.70;28.50;;;;;;;-2.63;85.97;98539.64;117174;1177;69136;-69
2021/10/28 02:46:26;;;;;;;59.50;30.30;;;;;;;-2.65;85.46;98539.30;117242;1173;59529;-73
2021/10/28 02:48:56;;;;;;;61.10;27.60;;;;;;;-2.68;85.11;98537.81;117268;1176;59494;-74
2021/10/28 02:51:25;;;;;;;60.60;31.90;;;;;;;-2.68;85.92;98539.83;116959;1177;70552;-79
2021/10/28 02:53:55;;;;;;;48.70;26.90;;;;;;;-2.70;85.06;98536.59;117107;1176;68151;-69
2021/10/28 02:56:25;;;;;;;57.40;30.40;;;;;;;-2.70;85.76;98533.89;117306;1177;68398;-69
2021/10/28 02:58:54;;;;;;;45.80;24.60;;;;;;;-2.70;85.59;98536.69;117044;1177;59542;-80
2021/10/28 03:01:24;;;;;;;57.60;32.30;;;;;;;-2.69;86.28;98537.67;117169;1177;59538;-71
2021/10/28 03:03:54;;;;;;;55.60;29.90;;;;;;;-2.71;85.10;98545.08;117207;1177;69601;-77
2021/10/28 03:06:23;;;;;;;52.70;29.90;;;;;;;-2.77;84.49;98551.55;116992;1177;66715;-80
2021/10/28 03:08:52;;;;;;;51.00;27.30;;;;;;;-2.81;84.50;98550.20;117231;1176;68291;-69
2021/10/28 03:11:22;;;;;;;59.40;30.70;;;;;;;-2.85;84.66;98549.69;116930;1177;59514;-73
2021/10/28 03:13:51;;;;;;;54.70;30.10;;;;;;;-2.88;84.14;98550.39;117074;1177;59526;-73
2021/10/28 03:16:38;;;;;;;52.20;30.00;;;;;;;-2.90;84.52;98547.36;116915;1177;71357;-79
2021/10/28 03:27:33;;;;;;;48.30;24.10;;;;;;;-2.96;85.20;98554.09;116957;1177;59536;-76
2021/10/28 03:30:04;;;;;;;47.20;27.70;;;;;;;-2.98;85.61;98556.08;117151;1176;70806;-79
2021/10/28 03:32:34;;;;;;;;;;;;;;;-3.00;86.14;98561.45;117155;1177;69453;-74
2021/10/28 03:35:07;;;;;;;48.20;25.60;;;;;;;-2.99;86.49;98563.02;116968;1177;69124;-73
2021/10/28 03:37:48;;;;;;;39.10;19.90;;;;;;;-3.01;85.88;98567.38;117176;1176;59528;-76
2021/10/28 03:46:06;;;;;;;55.40;29.50;;;;;;;-2.85;88.25;98567.81;117030;1177;68013;-78
2021/10/28 03:59:54;;;;;;;63.60;34.50;;;;;;;-2.87;85.41;98557.02;117058;1177;68621;-70
2021/10/28 04:03:27;;;;;;;61.30;34.00;;;;;;;-2.91;85.46;98554.77;116979;1177;68233;-69
2021/10/28 04:29:58;;;;;;;78.20;39.50;;;;;;;-3.08;85.29;98570.98;117014;1177;70968;-70
2021/10/28 04:32:28;;;;;;;94.90;44.00;;;;;;;-2.98;85.56;98567.40;116982;1177;59516;-71
2021/10/28 04:34:57;;;;;;;80.20;40.00;;;;;;;-2.91;85.09;98570.80;117005;1177;59565;-72
2021/10/28 04:37:26;;;;;;;76.70;41.10;;;;;;;-2.88;85.69;98570.66;117043;1177;70644;-73
2021/10/28 04:39:56;;;;;;;77.80;38.90;;;;;;;-2.90;84.80;98573.61;117106;1177;66636;-73
2021/10/28 04:42:25;;;;;;;84.00;40.90;;;;;;;-2.96;84.59;98577.33;117002;1177;68451;-72
2021/10/28 04:44:54;;;;;;;68.70;36.90;;;;;;;-3.02;84.31;98574.20;117006;1177;59987;-73
2021/10/28 04:47:23;;;;;;;63.80;33.10;;;;;;;-3.08;84.22;98574.42;116998;1178;59543;-80
2021/10/28 04:49:52;;;;;;;55.70;33.20;;;;;;;-3.12;84.32;98572.21;117103;1176;71426;-70
2021/10/28 04:52:22;;;;;;;61.70;34.70;;;;;;;-3.16;84.12;98571.85;117167;1177;66667;-80
2021/10/28 04:54:53;;;;;;;57.90;32.70;;;;;;;-3.17;83.55;98574.88;116989;1177;68423;-74
2021/10/28 04:57:22;;;;;;;45.50;25.10;;;;;;;-3.19;83.86;98576.27;116931;1177;59510;-77
2021/10/28 04:59:51;;;;;;;56.60;32.30;;;;;;;-3.20;85.31;98583.20;117166;1176;59538;-81
2021/10/28 05:02:20;;;;;;;44.60;25.10;;;;;;;-3.19;85.18;98586.33;117168;1177;70400;-77
2021/10/28 05:04:49;;;;;;;59.50;30.90;;;;;;;-3.16;86.72;98589.86;116966;1177;67706;-73
2021/10/28 05:07:18;;;;;;;49.00;28.50;;;;;;;-3.15;86.26;98591.29;116988;1174;69240;-75
2021/10/28 05:09:48;;;;;;;49.70;27.60;;;;;;;-3.13;86.21;98593.16;117061;1177;59561;-82
2021/10/28 05:12:17;;;;;;;48.00;25.70;;;;;;;-3.10;86.28;98597.16;117040;1177;59543;-74
2021/10/28 05:14:46;;;;;;;45.60;26.90;;;;;;;-3.04;86.79;98602.84;116957;1180;71409;-74
2021/10/28 05:17:15;;;;;;;60.10;33.00;;;;;;;-3.00;87.25;98597.75;116762;1180;67419;-78
2021/10/28 05:19:45;;;;;;;70.80;34.90;;;;;;;-2.98;86.64;98604.42;117014;1177;69043;-79
2021/10/28 05:22:13;;;;;;;65.50;33.40;;;;;;;-2.96;85.85;98605.20;117044;1173;59534;-72
2021/10/28 05:24:42;;;;;;;66.70;33.50;;;;;;;-2.94;85.14;98605.13;116954;1180;59539;-81
2021/10/28 05:27:11;;;;;;;61.20;32.00;;;;;;;-2.93;84.83;98608.18;117086;1177;71391;-76
2021/10/28 05:30:03;;;;;;;51.60;27.00;;;;;;;-2.94;84.11;98609.46;117082;1177;68688;-71
2021/10/28 05:32:32;;;;;;;56.20;31.10;;;;;;;-2.93;83.92;98613.52;117017;1177;67406;-69
2021/10/28 05:35:01;;;;;;;45.50;22.90;;;;;;;-2.90;83.93;98615.22;116912;1177;59501;-81
2021/10/28 05:37:29;;;;;;;54.50;28.10;;;;;;;-2.83;84.80;98612.33;116932;1178;59556;-75
2021/10/28 05:40:00;;;;;;;63.70;33.70;;;;;;;-2.76;85.00;98614.03;117137;1176;70438;-72
2021/10/28 05:42:30;;;;;;;62.60;35.00;;;;;;;-2.69;84.31;98614.98;116935;1177;66819;-74
2021/10/28 05:45:00;;;;;;;81.40;41.50;;;;;;;-2.65;83.79;98614.78;116963;1177;69371;-77
2021/10/28 05:47:29;;;;;;;71.00;38.90;;;;;;;-2.61;83.39;98613.84;117240;1176;59529;-73
2021/10/28 05:50:20;;;;;;;57.30;31.80;;;;;;;-2.55;83.33;98619.22;117105;1177;59584;-76
2021/10/28 05:52:52;;;;;;;69.30;34.70;;;;;;;-2.46;83.21;98619.36;116937;1177;71468;-76
2021/10/28 05:55:22;;;;;;;63.20;31.70;;;;;;;-2.36;83.60;98619.44;116987;1177;67651;-76
2021/10/28 05:57:53;;;;;;;63.30;32.70;;;;;;;-2.28;83.26;98618.92;117011;1176;68495;-75
2021/10/28 06:00:24;;;;;;;62.40;35.30;;;;;;;-2.19;83.41;98614.14;116952;1177;59538;-70
2021/10/28 06:02:53;;;;;;;55.00;27.80;;;;;;;-2.09;83.10;98617.71;117181;1176;59545;-78
2021/10/28 06:05:22;;;;;;;72.00;38.60;;;;;;;-1.99;84.01;98616.27;117233;1177;71289;-76
2021/10/28 06:07:51;;;;;;;79.70;44.40;;;;;;;-1.88;82.77;98614.98;117115;1176;68403;-79
2021/10/28 06:10:20;;;;;;;93.90;49.00;;;;;;;-1.76;81.94;98619.39;117031;1177;69814;-74
2021/10/28 06:12:52;;;;;;;89.60;48.80;;;;;;;-1.59;81.67;98624.61;117094;1177;59542;-75
2021/10/28 06:15:22;;;;;;;85.90;45.20;;;;;;;-1.21;80.79;98632.36;117118;1177;59533;-72
2021/10/28 06:18:00;;;;;;;94.10;47.20;;;;;;;-0.69;80.29;98640.62;117046;1180;69736;-74
2021/10/28 06:20:29;;;;;;;82.00;44.80;;;;;;;-0.11;78.73;98644.96;116996;1177;67898;-74
2021/10/28 06:22:58;;;;;;;48.50;28.40;;;;;;;0.46;77.19;98642.89;117097;1177;69247;-80
2021/10/28 06:25:27;;;;;;;81.00;43.30;;;;;;;1.03;79.90;98641.80;116964;1177;59536;-78
2021/10/28 06:27:56;;;;;;;75.10;40.50;;;;;;;1.61;77.68;98642.07;117120;1177;59530;-78
2021/10/28 06:30:25;;;;;;;81.00;45.00;;;;;;;2.12;75.07;98645.58;117183;1176;71391;-73
2021/10/28 06:32:56;;;;;;;68.20;41.40;;;;;;;2.52;74.54;98640.94;117095;1176;67639;-80
2021/10/28 06:35:26;;;;;;;75.60;44.10;;;;;;;3.01;74.18;98639.30;116917;1177;69009;-75
2021/10/28 06:37:56;;;;;;;74.60;46.20;;;;;;;3.55;74.59;98639.91;117012;1177;60306;-72
2021/10/28 06:40:26;;;;;;;69.90;40.70;;;;;;;3.86;65.27;98642.65;116857;1179;59609;-74
2021/10/28 06:42:55;;;;;;;78.50;44.50;;;;;;;4.05;62.99;98638.09;117090;1177;70558;-75
2021/10/28 06:45:25;;;;;;;75.00;45.40;;;;;;;4.11;62.47;98642.56;117021;1174;67410;-72
2021/10/28 06:47:57;;;;;;;75.50;44.30;;;;;;;4.53;62.13;98644.67;117025;1177;69247;-73
2021/10/28 06:50:34;;;;;;;64.60;39.20;;;;;;;4.98;60.33;98646.36;117090;1177;59545;-77
2021/10/28 06:53:12;;;;;;;83.10;44.90;;;;;;;5.29;59.97;98639.58;116986;1177;59648;-80
2021/10/28 07:03:27;;;;;;;80.20;47.50;;;;;;;7.14;58.82;98645.05;116946;1177;59545;-83
2021/10/28 07:06:36;;;;;;;75.30;48.40;;;;;;;7.70;58.34;98651.08;117057;1177;59538;-72
2021/10/28 07:08:57;;;;;;;78.30;48.10;;;;;;;8.03;53.50;98648.98;116841;1177;70400;-75
2021/10/28 07:11:30;;;;;;;84.40;50.00;;;;;;;8.36;52.37;98645.13;116973;1177;67667;-85
2021/10/28 07:14:03;;;;;;;75.70;48.00;;;;;;;8.58;52.34;98641.08;116969;1177;67748;-75
2021/10/28 07:17:00;;;;;;;72.80;43.80;;;;;;;8.70;51.83;98642.23;116930;1177;59527;-72
2021/10/28 07:30:52;;;;;;;45.70;30.30;;;;;;;8.84;51.49;98638.18;117188;1180;59510;-69
2021/10/28 07:36:02;;;;;;;41.00;27.50;;;;;;;9.99;49.50;98629.73;117614;1177;70615;-71
2021/10/28 07:38:57;;;;;;;38.90;25.80;;;;;;;10.25;47.97;98630.70;117087;1178;68586;-76
2021/10/28 08:31:09;;;;;;;29.10;22.60;;;;;;;14.49;38.20;98580.73;116966;1176;70513;-69
2021/10/28 08:33:39;;;;;;;33.90;23.40;;;;;;;14.88;38.15;98580.45;116970;1177;68162;-76
2021/10/28 08:36:12;;;;;;;30.70;20.90;;;;;;;15.23;37.09;98578.48;116951;1177;68239;-84
2021/10/28 08:38:42;;;;;;;34.00;22.10;;;;;;;15.23;37.14;98577.27;116902;1177;59545;-76
2021/10/28 08:41:11;;;;;;;26.80;20.50;;;;;;;15.94;35.15;98582.66;116866;1178;59497;-75
2021/10/28 08:43:43;;;;;;;29.20;20.00;;;;;;;15.77;35.33;98576.80;116884;1177;71424;-81
2021/10/28 08:46:14;;;;;;;29.40;21.50;;;;;;;15.01;36.30;98575.70;116948;1177;69012;-81
2021/10/28 08:48:54;;;;;;;32.40;20.60;;;;;;;16.04;34.75;98575.19;116994;1177;69233;-75
2021/10/28 08:59:27;;;;;;;30.40;21.30;;;;;;;16.83;33.48;98576.06;117465;1177;69048;-73
2021/10/28 09:25:10;;;;;;;25.60;19.20;;;;;;;18.50;30.05;98568.25;118058;1173;71472;-78
2021/10/28 09:27:47;;;;;;;24.80;18.90;;;;;;;18.33;29.80;98567.05;117726;1177;68586;-83
2021/10/28 09:30:27;;;;;;;27.70;20.80;;;;;;;18.89;29.14;98565.92;117265;1177;67803;-70
2021/10/28 09:33:16;;;;;;;26.80;20.70;;;;;;;19.33;28.65;98559.05;117254;1179;59497;-70
2021/10/28 09:36:10;;;;;;;26.50;20.20;;;;;;;20.32;27.76;98557.60;117577;1177;59520;-73
2021/10/28 09:50:24;;;;;;;27.00;18.90;;;;;;;20.74;26.61;98542.09;116984;1177;59631;-82
2021/10/28 09:53:11;;;;;;;26.70;21.40;;;;;;;21.57;24.86;98534.45;117013;1176;71347;-77
2021/10/28 09:58:32;;;;;;;31.30;22.60;;;;;;;21.30;25.94;98530.27;117015;1176;69283;-81
2021/10/28 10:01:03;;;;;;;45.10;27.40;;;;;;;22.11;24.61;98521.61;117060;1177;59611;-79
2021/10/28 10:03:39;;;;;;;36.90;24.30;;;;;;;22.73;24.11;98519.56;117053;1177;59574;-79
2021/10/28 10:06:14;;;;;;;29.60;22.10;;;;;;;23.09;23.24;98512.25;117097;1177;70685;-74
2021/10/28 10:08:45;;;;;;;24.20;18.30;;;;;;;23.32;22.25;98507.50;117242;1176;67643;-78
2021/10/28 10:11:16;;;;;;;27.60;20.10;;;;;;;23.21;22.60;98506.58;117081;1177;68423;-73
2021/10/28 10:13:46;;;;;;;24.10;19.60;;;;;;;23.78;21.74;98504.39;116946;1177;59572;-84
2021/10/28 10:16:15;;;;;;;38.70;20.20;;;;;;;23.10;22.20;98502.51;117130;1177;59497;-78
2021/10/28 10:18:50;;;;;;;28.40;20.10;;;;;;;23.38;21.93;98501.36;117265;1177;71400;-82
2021/10/28 10:21:38;;;;;;;29.70;19.80;;;;;;;22.54;22.65;98500.52;117047;1168;68433;-74
2021/10/28 12:15:39;;;;;;;33.10;22.50;;;;;;;23.32;20.59;98392.19;117044;1177;71489;-72
2021/10/28 12:44:12;;;;;;;30.90;20.60;;;;;;;23.93;20.01;98360.52;116886;1180;71634;-72
2021/10/28 12:52:43;;;;;;;28.40;20.30;;;;;;;23.86;20.28;98357.80;117026;1177;59577;-74
2021/10/28 13:04:03;;;;;;;29.60;21.20;;;;;;;23.80;19.95;98352.55;116968;1177;69258;-75
2021/10/28 13:53:45;;;;;;;36.90;25.10;;;;;;;24.04;20.58;98331.14;116777;1177;70917;-77
2021/10/28 14:21:15;;;;;;;38.60;24.90;;;;;;;22.18;22.85;98330.89;117031;1177;71382;-71
2021/10/28 15:27:41;;;;;;;83.90;44.30;;;;;;;12.69;39.47;98325.04;116976;1177;69443;-74
2021/10/28 15:28:09;;;;;;;82.20;42.80;;;;;;;10.34;43.46;98331.14;116882;1177;59536;-79
2021/10/28 15:38:58;;;;;;;81.30;41.60;;;;;;;9.91;46.86;98339.67;117002;1177;59509;-72
2021/10/28 16:23:37;;;;;;;89.10;48.40;;;;;;;7.89;51.79;98358.16;117011;1177;59520;-75
2021/10/28 16:26:07;;;;;;;92.20;47.00;;;;;;;7.80;53.61;98358.97;117050;1177;72060;-76
2021/10/28 16:28:35;;;;;;;74.70;43.10;;;;;;;7.75;54.22;98357.02;116981;1177;68346;-80
2021/10/28 16:31:04;;;;;;;78.70;47.00;;;;;;;7.68;53.50;98354.98;117089;1176;68470;-69
2021/10/28 16:33:34;;;;;;;112.00;61.40;;;;;;;7.59;52.27;98355.66;117318;1170;59536;-76
2021/10/28 16:36:03;;;;;;;107.00;60.50;;;;;;;7.46;51.78;98358.05;117101;1176;59483;-71
2021/10/28 16:38:32;;;;;;;101.50;58.80;;;;;;;7.33;53.59;98360.52;117009;1177;72007;-83
2021/10/28 16:41:01;;;;;;;101.00;58.80;;;;;;;7.21;54.66;98357.52;117001;1177;67407;-71
2021/10/28 16:43:30;;;;;;;99.20;55.40;;;;;;;7.10;54.69;98358.02;116917;1179;68828;-70
2021/10/28 16:45:59;;;;;;;95.20;52.40;;;;;;;7.00;55.38;98357.39;117009;1177;59584;-69
2021/10/28 16:48:28;;;;;;;101.20;54.40;;;;;;;6.92;54.27;98361.64;116958;1177;59577;-71
2021/10/28 16:50:57;;;;;;;91.00;50.00;;;;;;;6.84;55.25;98361.34;117002;1177;71385;-74
2021/10/28 16:53:26;;;;;;;90.70;50.60;;;;;;;6.77;56.68;98360.06;116998;1177;68985;-74
2021/10/28 16:56:00;;;;;;;81.70;43.70;;;;;;;6.71;56.80;98359.36;116923;1177;68414;-70
2021/10/28 16:58:29;;;;;;;86.50;46.70;;;;;;;6.64;55.64;98363.83;116944;1177;59538;-87
2021/10/28 17:00:58;;;;;;;81.50;45.80;;;;;;;6.55;56.02;98363.35;116973;1177;59510;-73
2021/10/28 17:03:28;;;;;;;79.00;41.40;;;;;;;6.45;57.40;98366.08;116910;1178;72127;-70
2021/10/28 17:05:57;;;;;;;85.90;45.70;;;;;;;6.37;58.37;98367.09;117057;1177;68173;-73
2021/10/28 17:08:26;;;;;;;85.10;44.40;;;;;;;6.31;57.20;98366.85;117007;1177;69780;-73
2021/10/28 17:10:56;;;;;;;74.60;44.10;;;;;;;6.26;56.07;98366.26;116890;1177;59551;-74
2021/10/28 17:13:24;;;;;;;77.00;44.20;;;;;;;6.21;55.21;98366.27;117013;1177;59489;-70
2021/10/28 17:15:53;;;;;;;77.60;42.40;;;;;;;6.15;55.42;98368.77;116979;1177;71341;-83
2021/10/28 17:18:22;;;;;;;73.90;41.30;;;;;;;6.08;58.28;98366.92;117012;1177;68145;-81
2021/10/28 17:20:58;;;;;;;79.60;41.10;;;;;;;6.00;57.53;98368.94;116917;1177;69648;-70
2021/10/28 17:23:32;;;;;;;71.60;42.60;;;;;;;5.93;57.17;98368.84;116919;1177;59503;-78
2021/10/28 17:26:03;;;;;;;73.40;42.30;;;;;;;5.85;57.02;98372.22;116982;1177;59548;-78
2021/10/28 17:28:34;;;;;;;69.30;40.60;;;;;;;5.80;55.77;98373.39;116918;1177;70802;-71
2021/10/28 17:31:05;;;;;;;67.60;37.60;;;;;;;5.75;56.06;98373.21;116948;1177;68820;-72
2021/10/28 17:33:34;;;;;;;71.40;41.30;;;;;;;5.71;57.68;98368.30;116929;1169;69026;-75
2021/10/28 17:36:04;;;;;;;74.60;42.00;;;;;;;5.68;59.08;98373.32;116921;1178;59551;-72
2021/10/28 17:38:33;;;;;;;;;;;;;;;5.64;57.70;98372.84;117035;1177;59542;-74
2021/10/28 17:41:04;;;;;;;62.20;35.20;;;;;;;5.61;57.70;98376.13;116962;1179;71191;-70
2021/10/28 17:43:51;;;;;;;75.10;42.80;;;;;;;5.59;58.23;98378.94;116928;1177;68810;-85
2021/10/28 17:46:24;;;;;;;68.30;40.00;;;;;;;5.56;59.12;98378.91;117023;1177;69329;-76
2021/10/28 17:48:54;;;;;;;69.40;42.80;;;;;;;5.53;59.26;98378.18;116956;1177;59539;-69
2021/10/28 17:51:23;;;;;;;73.10;42.50;;;;;;;5.45;59.96;98379.16;117045;1177;59519;-75
2021/10/28 17:53:52;;;;;;;72.60;40.10;;;;;;;5.38;60.53;98378.64;116982;1177;71422;-81
2021/10/28 17:56:21;;;;;;;65.20;40.60;;;;;;;5.31;60.97;98379.77;116952;1179;68544;-69
2021/10/28 17:58:50;;;;;;;73.50;42.30;;;;;;;5.25;60.47;98381.08;116950;1177;69182;-70
2021/10/28 18:01:21;;;;;;;75.40;40.60;;;;;;;5.18;61.83;98378.04;116916;1177;59530;-72
2021/10/28 18:03:55;;;;;;;65.40;37.50;;;;;;;5.09;61.50;98384.50;116958;1177;59555;-70
2021/10/28 18:06:24;;;;;;;75.60;39.70;;;;;;;5.01;61.88;98383.80;116960;1177;70366;-76
2021/10/28 18:08:53;;;;;;;65.30;38.00;;;;;;;4.94;60.77;98386.25;116968;1177;68354;-81
2021/10/28 18:11:23;;;;;;;58.60;34.20;;;;;;;4.87;63.37;98383.38;117014;1177;67664;-82
2021/10/28 18:13:56;;;;;;;65.30;37.10;;;;;;;4.81;64.25;98384.72;117022;1177;59641;-72
2021/10/28 18:16:26;;;;;;;73.40;39.90;;;;;;;4.76;64.19;98379.05;117050;1177;59609;-85
2021/10/28 18:18:56;;;;;;;75.80;37.20;;;;;;;4.69;62.61;98377.81;116976;1177;70696;-74
2021/10/28 18:21:26;;;;;;;66.30;38.70;;;;;;;4.62;63.75;98373.19;117102;1177;68812;-72
2021/10/28 18:23:57;;;;;;;65.20;36.20;;;;;;;4.56;62.01;98372.74;117018;1177;68292;-70
2021/10/28 18:26:26;;;;;;;70.70;40.40;;;;;;;4.50;61.90;98370.03;117145;1177;59456;-69
2021/10/28 18:28:56;;;;;;;71.80;40.60;;;;;;;4.45;60.86;98365.73;116977;1177;59548;-69
2021/10/28 18:31:28;;;;;;;73.40;41.40;;;;;;;4.31;61.31;98367.56;117128;1177;71545;-72
2021/10/28 18:33:58;;;;;;;73.40;39.20;;;;;;;4.15;63.76;98375.06;117027;1177;68426;-76
2021/10/28 18:36:30;;;;;;;59.50;35.40;;;;;;;4.05;64.55;98372.99;116899;1178;69348;-79
2021/10/28 18:38:58;;;;;;;73.40;41.60;;;;;;;3.98;65.74;98373.63;116938;1177;59543;-70
2021/10/28 18:41:27;;;;;;;80.50;42.90;;;;;;;3.92;63.20;98375.11;116889;1178;59533;-71
2021/10/28 18:43:57;;;;;;;77.40;43.20;;;;;;;3.87;62.79;98372.39;117001;1177;70176;-73
2021/10/28 18:46:26;;;;;;;69.80;42.30;;;;;;;3.84;62.88;98374.23;116940;1177;67643;-75
2021/10/28 18:49:02;;;;;;;73.00;43.10;;;;;;;3.83;62.77;98378.54;116926;1178;69664;-78
2021/10/28 18:51:33;;;;;;;78.90;44.20;;;;;;;3.82;62.15;98380.17;116964;1178;59593;-76
2021/10/28 18:54:03;;;;;;;79.00;47.40;;;;;;;3.84;64.61;98383.80;117054;1177;59568;-69
2021/10/28 18:56:32;;;;;;;82.00;46.00;;;;;;;3.84;65.09;98382.92;117054;1177;69790;-70
2021/10/28 18:59:02;;;;;;;74.30;40.70;;;;;;;3.78;65.21;98383.48;116912;1178;68838;-80
2021/10/28 19:01:31;;;;;;;71.60;39.70;;;;;;;3.71;67.78;98379.63;117208;1177;69263;-73
2021/10/28 19:04:00;;;;;;;77.70;43.70;;;;;;;3.65;66.82;98381.04;117075;1177;59536;-73
2021/10/28 19:06:29;;;;;;;82.40;45.70;;;;;;;3.59;66.67;98384.09;117009;1177;59513;-71
2021/10/28 19:08:58;;;;;;;78.70;44.50;;;;;;;3.51;66.78;98388.52;117054;1176;71772;-74
2021/10/28 19:11:27;;;;;;;77.60;43.20;;;;;;;3.42;65.70;98396.38;116965;1177;68193;-70
2021/10/28 19:13:57;;;;;;;75.60;43.30;;;;;;;3.35;67.59;98394.70;116952;1177;69251;-79
2021/10/28 19:16:26;;;;;;;70.60;42.10;;;;;;;3.30;66.25;98392.06;116878;1179;59565;-75
2021/10/28 19:18:55;;;;;;;68.80;40.60;;;;;;;3.27;65.44;98397.33;116952;1177;59490;-77
2021/10/28 19:21:24;;;;;;;81.10;42.80;;;;;;;3.25;65.21;98397.86;117059;1177;70620;-73
2021/10/28 19:23:55;;;;;;;69.10;39.40;;;;;;;3.24;65.06;98395.73;117025;1177;68663;-77
2021/10/28 19:26:24;;;;;;;76.90;45.70;;;;;;;3.22;66.21;98392.34;116938;1179;69045;-71
2021/10/28 19:28:53;;;;;;;79.30;44.90;;;;;;;3.22;66.08;98397.27;116950;1177;59529;-82
2021/10/28 19:31:27;;;;;;;89.30;48.30;;;;;;;3.16;66.50;98399.35;117016;1177;59522;-72
2021/10/28 19:33:59;;;;;;;74.30;39.70;;;;;;;3.03;66.92;98395.00;117147;1177;71131;-70
2021/10/28 19:36:53;;;;;;;80.80;45.80;;;;;;;2.97;70.24;98395.70;117020;1177;68424;-73
2021/10/28 19:39:33;;;;;;;82.60;42.70;;;;;;;2.93;67.17;98396.58;117013;1177;69492;-70
2021/10/28 19:45:01;;;;;;;88.90;46.80;;;;;;;2.90;67.61;98393.23;117078;1177;59553;-75
2021/10/28 19:47:39;;;;;;;74.10;38.20;;;;;;;2.86;67.08;98400.20;117030;1177;71452;-80
2021/10/28 19:50:12;;;;;;;75.90;42.50;;;;;;;2.86;67.50;98403.31;117148;1177;67408;-76
2021/10/28 19:52:42;;;;;;;67.60;39.60;;;;;;;2.82;71.21;98404.90;117143;1176;69029;-80
2021/10/28 19:55:12;;;;;;;87.20;46.70;;;;;;;2.76;70.32;98404.33;117046;1176;59564;-72
2021/10/28 19:57:48;;;;;;;82.40;45.40;;;;;;;2.70;68.34;98406.73;116988;1179;59508;-69
2021/10/28 20:00:38;;;;;;;83.40;49.30;;;;;;;2.66;68.00;98407.35;117215;1177;71058;-72
2021/10/28 20:14:23;;;;;;;71.50;41.60;;;;;;;2.58;69.11;98406.07;117093;1176;70360;-83
2021/10/28 20:22:27;;;;;;;72.90;43.00;;;;;;;2.65;70.67;98395.30;117166;1177;59520;-81
2021/10/28 20:24:56;;;;;;;83.30;45.80;;;;;;;2.62;71.44;98402.85;117013;1177;59581;-82
2021/10/28 20:27:26;;;;;;;80.70;44.00;;;;;;;2.59;70.91;98404.20;117130;1177;70650;-70
2021/10/28 20:29:55;;;;;;;80.30;40.70;;;;;;;2.59;71.42;98403.65;117098;1176;68427;-78